createdAt,value
2023-07-14T00:00:57.185Z,77.20
2023-07-14T00:01:57.240Z,77.11
2023-07-14T00:02:57.212Z,77.11
2023-07-14T00:03:57.202Z,76.90
2023-07-14T00:04:57.140Z,77.00
2023-07-14T00:05:57.132Z,76.90
2023-07-14T00:06:57.132Z,76.90
2023-07-14T00:07:57.109Z,77.20
2023-07-14T00:08:57.149Z,77.14
2023-07-14T00:09:57.107Z,77.11
2023-07-14T00:10:57.068Z,77.31
2023-07-14T00:11:57.061Z,78.15
2023-07-14T00:12:57.059Z,77.95
2023-07-14T00:13:57.064Z,77.61
2023-07-14T00:14:57.028Z,77.64
2023-07-14T00:15:57.036Z,77.31
2023-07-14T00:16:57.218Z,77.91
2023-07-14T00:17:57.031Z,78.01
2023-07-14T00:18:57.041Z,77.31
2023-07-14T00:19:56.974Z,77.11
2023-07-14T00:20:56.961Z,77.24
2023-07-14T00:21:56.953Z,77.75
2023-07-14T00:22:57.038Z,77.75
2023-07-14T00:23:56.942Z,77.31
2023-07-14T00:24:56.910Z,77.61
2023-07-14T00:25:56.946Z,77.55
2023-07-14T00:26:56.947Z,77.55
2023-07-14T00:27:56.893Z,78.15
2023-07-14T00:28:56.932Z,78.15
2023-07-14T00:29:56.863Z,78.35
2023-07-14T00:30:56.846Z,78.25
2023-07-14T00:31:56.868Z,77.84
2023-07-14T00:32:56.881Z,78.55
2023-07-14T00:33:56.842Z,78.45
2023-07-14T00:34:56.830Z,78.25
2023-07-14T00:35:56.793Z,78.35
2023-07-14T00:36:56.784Z,78.25
2023-07-14T00:37:56.776Z,78.15
2023-07-14T00:38:56.813Z,78.35
2023-07-14T00:39:56.746Z,77.95
2023-07-14T00:40:56.752Z,78.15
2023-07-14T00:41:56.760Z,78.35
2023-07-14T00:42:56.715Z,78.05
2023-07-14T00:43:56.740Z,78.55
2023-07-14T00:44:56.733Z,78.25
2023-07-14T00:45:56.739Z,78.55
2023-07-14T00:46:56.674Z,78.05
2023-07-14T00:47:56.696Z,78.45
2023-07-14T00:48:56.665Z,78.05
2023-07-14T00:49:56.640Z,78.55
2023-07-14T00:50:56.675Z,77.75
2023-07-14T00:51:56.606Z,78.15
2023-07-14T00:52:56.595Z,78.35
2023-07-14T00:53:56.619Z,77.64
2023-07-14T00:54:56.587Z,78.35
2023-07-14T00:55:56.594Z,78.25
2023-07-14T00:56:56.560Z,78.45
2023-07-14T00:57:56.550Z,77.84
2023-07-14T00:58:56.534Z,78.15
2023-07-14T00:59:56.559Z,78.25
2023-07-14T01:00:56.518Z,78.05
2023-07-14T01:01:56.554Z,78.35
2023-07-14T01:02:56.545Z,77.84
2023-07-14T01:03:56.908Z,77.44
2023-07-14T01:04:56.471Z,77.64
2023-07-14T01:05:56.467Z,78.05
2023-07-14T01:06:56.461Z,77.44
2023-07-14T01:07:56.480Z,77.55
2023-07-14T01:08:56.439Z,77.64
2023-07-14T01:09:56.406Z,77.44
2023-07-14T01:10:56.414Z,77.14
2023-07-14T01:11:56.383Z,78.05
2023-07-14T01:12:56.380Z,78.45
2023-07-14T01:13:56.403Z,78.05
2023-07-14T01:14:56.344Z,77.34
2023-07-14T01:15:56.426Z,77.44
2023-07-14T01:16:56.328Z,77.44
2023-07-14T01:17:56.345Z,78.25
2023-07-14T01:18:56.310Z,78.15
2023-07-14T01:19:56.357Z,78.05
2023-07-14T01:20:56.307Z,78.15
2023-07-14T01:21:56.263Z,78.55
2023-07-14T01:22:56.338Z,77.95
2023-07-14T01:23:56.262Z,78.28
2023-07-14T01:24:56.226Z,78.08
2023-07-14T01:25:56.239Z,78.05
2023-07-14T01:26:56.211Z,78.08
2023-07-14T01:27:56.209Z,77.88
2023-07-14T01:28:56.202Z,78.59
2023-07-14T01:29:56.171Z,78.49
2023-07-14T01:30:56.197Z,78.28
2023-07-14T01:31:56.179Z,78.59
2023-07-14T01:32:56.184Z,78.19
2023-07-14T01:33:56.182Z,78.89
2023-07-14T01:34:56.133Z,78.32
2023-07-14T01:35:56.127Z,78.79
2023-07-14T01:36:56.106Z,78.72
2023-07-14T01:37:56.081Z,78.92
2023-07-14T01:38:56.109Z,78.52
2023-07-14T01:39:56.067Z,78.92
2023-07-14T01:40:56.046Z,79.03
2023-07-14T01:41:56.041Z,78.63
2023-07-14T01:42:56.033Z,78.92
2023-07-14T01:43:56.032Z,78.92
2023-07-14T01:44:55.996Z,79.13
2023-07-14T01:45:56.002Z,78.72
2023-07-14T01:46:56.053Z,79.23
2023-07-14T01:47:56.077Z,79.13
2023-07-14T01:48:55.967Z,78.69
2023-07-14T01:49:55.946Z,78.83
2023-07-14T01:50:55.935Z,79.13
2023-07-14T01:51:55.940Z,78.72
2023-07-14T01:52:55.909Z,78.83
2023-07-14T01:53:55.910Z,79.19
2023-07-14T01:54:55.911Z,79.03
2023-07-14T01:55:55.885Z,78.72
2023-07-14T01:56:55.911Z,78.72
2023-07-14T01:57:55.880Z,78.72
2023-07-14T01:58:55.862Z,79.33
2023-07-14T01:59:55.906Z,79.16
2023-07-14T02:00:55.850Z,79.43
2023-07-14T02:01:55.912Z,79.43
2023-07-14T02:02:55.928Z,79.53
2023-07-14T02:03:55.784Z,79.23
2023-07-14T02:04:55.788Z,79.33
2023-07-14T02:05:55.774Z,79.53
2023-07-14T02:06:55.771Z,79.63
2023-07-14T02:07:55.742Z,80.27
2023-07-14T02:08:55.749Z,80.38
2023-07-14T02:09:55.719Z,80.98
2023-07-14T02:10:55.726Z,80.78
2023-07-14T02:11:55.689Z,80.58
2023-07-14T02:12:55.678Z,80.68
2023-07-14T02:13:55.700Z,80.47
2023-07-14T02:14:55.695Z,80.31
2023-07-14T02:15:55.685Z,80.47
2023-07-14T02:16:55.704Z,80.62
2023-07-14T02:17:55.690Z,80.38
2023-07-14T02:18:55.620Z,80.98
2023-07-14T02:19:55.605Z,80.38
2023-07-14T02:20:55.610Z,80.98
2023-07-14T02:21:55.594Z,80.58
2023-07-14T02:22:55.730Z,80.92
2023-07-14T02:23:55.575Z,81.02
2023-07-14T02:24:55.537Z,81.52
2023-07-14T02:25:55.542Z,81.12
2023-07-14T02:26:55.557Z,81.02
2023-07-14T02:27:55.510Z,81.52
2023-07-14T02:28:55.509Z,81.42
2023-07-14T02:29:55.493Z,81.52
2023-07-14T02:30:55.508Z,81.12
2023-07-14T02:31:55.485Z,81.32
2023-07-14T02:32:55.485Z,81.32
2023-07-14T02:33:55.480Z,81.02
2023-07-14T02:34:55.433Z,81.42
2023-07-14T02:35:55.418Z,81.32
2023-07-14T02:36:55.416Z,81.32
2023-07-14T02:37:55.394Z,81.32
2023-07-14T02:38:55.417Z,81.32
2023-07-14T02:39:55.412Z,80.82
2023-07-14T02:40:55.369Z,81.32
2023-07-14T02:41:55.351Z,81.02
2023-07-14T02:42:55.362Z,81.12
2023-07-14T02:43:55.437Z,81.22
2023-07-14T02:44:55.320Z,81.46
2023-07-14T02:45:55.317Z,81.67
2023-07-14T02:46:55.360Z,81.73
2023-07-14T02:47:55.340Z,81.87
2023-07-14T02:48:55.291Z,81.67
2023-07-14T02:49:55.279Z,81.62
2023-07-14T02:50:55.248Z,81.76
2023-07-14T02:51:55.248Z,82.27
2023-07-14T02:52:55.254Z,82.07
2023-07-14T02:53:55.269Z,82.37
2023-07-14T02:54:55.217Z,82.27
2023-07-14T02:55:55.194Z,81.67
2023-07-14T02:56:55.197Z,82.67
2023-07-14T02:57:55.215Z,82.47
2023-07-14T02:58:55.270Z,82.27
2023-07-14T02:59:55.149Z,82.27
2023-07-14T03:00:55.175Z,82.67
2023-07-14T03:01:55.236Z,82.37
2023-07-14T03:02:55.283Z,82.51
2023-07-14T03:03:55.154Z,82.31
2023-07-14T03:04:55.111Z,82.41
2023-07-14T03:05:55.086Z,82.81
2023-07-14T03:06:55.074Z,83.22
2023-07-14T03:07:55.095Z,83.72
2023-07-14T03:08:55.079Z,83.42
2023-07-14T03:09:55.045Z,83.72
2023-07-14T03:10:55.040Z,82.91
2023-07-14T03:11:55.024Z,83.76
2023-07-14T03:12:55.018Z,83.72
2023-07-14T03:13:55.003Z,84.06
2023-07-14T03:14:55.000Z,83.96
2023-07-14T03:15:55.005Z,83.96
2023-07-14T03:16:55.027Z,84.06
2023-07-14T03:17:54.985Z,83.96
2023-07-14T03:18:55.000Z,83.76
2023-07-14T03:19:54.928Z,83.76
2023-07-14T03:20:54.912Z,83.96
2023-07-14T03:21:54.902Z,84.71
2023-07-14T03:22:54.982Z,84.51
2023-07-14T03:23:54.905Z,84.51
2023-07-14T03:24:54.882Z,84.71
2023-07-14T03:25:54.860Z,84.71
2023-07-14T03:26:54.853Z,84.87
2023-07-14T03:27:54.858Z,84.71
2023-07-14T03:28:54.857Z,84.71
2023-07-14T03:29:54.815Z,84.41
2023-07-14T03:30:54.837Z,84.51
2023-07-14T03:31:54.841Z,84.51
2023-07-14T03:32:54.815Z,84.61
2023-07-14T03:33:54.781Z,84.41
2023-07-14T03:34:54.771Z,84.51
2023-07-14T03:35:54.752Z,84.51
2023-07-14T03:36:54.748Z,84.51
2023-07-14T03:37:54.722Z,84.81
2023-07-14T03:38:54.721Z,84.71
2023-07-14T03:39:54.709Z,84.65
2023-07-14T03:40:54.690Z,84.61
2023-07-14T03:41:54.689Z,84.51
2023-07-14T03:42:54.676Z,85.02
2023-07-14T03:43:54.666Z,84.51
2023-07-14T03:44:54.656Z,84.25
2023-07-14T03:45:54.653Z,84.81
2023-07-14T03:46:54.639Z,84.65
2023-07-14T03:47:54.631Z,84.45
2023-07-14T03:48:54.648Z,84.85
2023-07-14T03:49:54.580Z,84.85
2023-07-14T03:50:54.581Z,84.65
2023-07-14T03:51:54.563Z,84.75
2023-07-14T03:52:54.552Z,84.65
2023-07-14T03:53:54.556Z,84.65
2023-07-14T03:54:54.533Z,84.61
2023-07-14T03:55:54.523Z,84.71
2023-07-14T03:56:54.534Z,84.85
2023-07-14T03:58:55.493Z,84.55
2023-07-14T03:59:54.478Z,84.75
2023-07-14T04:00:54.459Z,84.55
2023-07-14T04:01:54.493Z,84.65
2023-07-14T04:02:54.539Z,84.75
2023-07-14T04:03:54.489Z,84.65
2023-07-14T04:04:54.415Z,84.75
2023-07-14T04:05:54.406Z,84.34
2023-07-14T04:06:54.394Z,84.65
2023-07-14T04:07:54.399Z,84.65
2023-07-14T04:08:54.379Z,84.75
2023-07-14T04:09:54.357Z,84.75
2023-07-14T04:10:54.355Z,84.45
2023-07-14T04:11:54.336Z,84.85
2023-07-14T04:12:54.366Z,84.85
2023-07-14T04:13:54.320Z,84.85
2023-07-14T04:14:54.316Z,84.65
2023-07-14T04:15:54.321Z,84.55
2023-07-14T04:16:54.467Z,84.85
2023-07-14T04:17:54.323Z,84.65
2023-07-14T04:18:54.325Z,84.85
2023-07-14T04:19:54.249Z,84.85
2023-07-14T04:20:54.233Z,84.34
2023-07-14T04:21:54.219Z,84.34
2023-07-14T04:22:54.377Z,84.45
2023-07-14T04:23:54.302Z,84.75
2023-07-14T04:24:54.205Z,84.85
2023-07-14T04:25:54.186Z,84.75
2023-07-14T04:26:54.165Z,84.65
2023-07-14T04:27:54.191Z,84.34
2023-07-14T04:28:54.171Z,85.05
2023-07-14T04:29:54.173Z,84.85
2023-07-14T04:30:54.142Z,85.02
2023-07-14T04:31:54.212Z,84.41
2023-07-14T04:32:54.189Z,84.85
2023-07-14T04:33:54.105Z,84.51
2023-07-14T04:34:54.110Z,84.91
2023-07-14T04:35:54.070Z,84.71
2023-07-14T04:36:54.059Z,85.02
2023-07-14T04:37:54.049Z,85.02
2023-07-14T04:38:54.027Z,84.51
2023-07-14T04:39:54.012Z,84.20
2023-07-14T04:40:54.002Z,84.41
2023-07-14T04:41:53.998Z,84.47
2023-07-14T04:42:54.015Z,84.51
2023-07-14T04:43:53.983Z,84.67
2023-07-14T04:44:53.972Z,84.47
2023-07-14T04:45:53.992Z,83.96
2023-07-14T04:46:53.952Z,84.17
2023-07-14T04:47:53.937Z,84.06
2023-07-14T04:48:53.933Z,84.06
2023-07-14T04:49:53.912Z,83.82
2023-07-14T04:50:53.915Z,83.46
2023-07-14T04:51:53.890Z,83.82
2023-07-14T04:52:53.890Z,82.81
2023-07-14T04:53:53.874Z,82.81
2023-07-14T04:54:53.844Z,82.91
2023-07-14T04:55:53.830Z,82.21
2023-07-14T04:56:53.825Z,82.81
2023-07-14T04:57:53.812Z,82.27
2023-07-14T04:58:53.821Z,82.17
2023-07-14T04:59:53.787Z,82.41
2023-07-14T05:00:53.900Z,82.07
2023-07-14T05:01:53.779Z,82.27
2023-07-14T05:02:53.829Z,82.47
2023-07-14T05:03:53.796Z,81.32
2023-07-14T05:05:01.154Z,81.36
2023-07-14T05:05:54.728Z,81.02
2023-07-14T05:06:53.747Z,81.42
2023-07-14T05:07:53.698Z,80.98
2023-07-14T05:08:53.708Z,80.82
2023-07-14T05:09:53.694Z,80.88
2023-07-14T05:10:53.666Z,80.68
2023-07-14T05:11:53.681Z,80.78
2023-07-14T05:12:53.679Z,80.58
2023-07-14T05:13:53.644Z,79.97
2023-07-14T05:14:53.621Z,80.18
2023-07-14T05:15:53.689Z,80.07
2023-07-14T05:16:53.601Z,80.07
2023-07-14T05:17:53.639Z,79.87
2023-07-14T05:18:53.589Z,79.97
2023-07-14T05:19:53.561Z,80.24
2023-07-14T05:20:53.570Z,79.97
2023-07-14T05:21:53.543Z,79.73
2023-07-14T05:22:53.606Z,79.63
2023-07-14T05:23:53.536Z,79.23
2023-07-14T05:24:53.516Z,78.72
2023-07-14T05:25:53.500Z,79.03
2023-07-14T05:26:53.498Z,78.92
2023-07-14T05:27:53.510Z,79.03
2023-07-14T05:28:53.501Z,78.79
2023-07-14T05:29:53.450Z,79.09
2023-07-14T05:30:53.478Z,78.99
2023-07-14T05:31:53.445Z,78.49
2023-07-14T05:32:53.519Z,78.45
2023-07-14T05:33:53.436Z,77.14
2023-07-14T05:34:53.408Z,76.74
2023-07-14T05:35:53.394Z,76.64
2023-07-14T05:36:53.379Z,77.04
2023-07-14T05:37:53.366Z,77.24
2023-07-14T05:38:53.393Z,77.11
2023-07-14T05:39:53.334Z,77.24
2023-07-14T05:40:58.319Z,76.14
2023-07-14T05:41:54.319Z,76.10
2023-07-14T05:42:53.308Z,76.20
2023-07-14T05:43:53.418Z,76.30
2023-07-14T05:44:53.279Z,76.40
2023-07-14T05:45:53.294Z,75.49
2023-07-14T05:46:53.291Z,76.30
2023-07-14T05:47:53.291Z,75.59
2023-07-14T05:48:53.257Z,75.19
2023-07-14T05:49:53.238Z,74.99
2023-07-14T05:50:53.218Z,74.99
2023-07-14T05:51:53.205Z,75.70
2023-07-14T05:52:53.193Z,75.35
2023-07-14T05:53:53.199Z,76.16
2023-07-14T05:54:53.196Z,75.15
2023-07-14T05:55:53.186Z,74.55
2023-07-14T05:56:53.151Z,75.46
2023-07-14T05:57:53.148Z,74.52
2023-07-14T05:58:53.149Z,74.72
2023-07-14T05:59:53.109Z,74.32
2023-07-14T06:00:53.137Z,74.11
2023-07-14T06:01:53.089Z,74.01
2023-07-14T06:02:53.117Z,74.58
2023-07-14T06:03:53.128Z,74.58
2023-07-14T06:04:53.089Z,72.84
2023-07-14T06:05:53.042Z,72.00
2023-07-14T06:06:53.038Z,71.53
2023-07-14T06:07:53.014Z,70.09
2023-07-14T06:08:53.038Z,70.86
2023-07-14T06:09:52.992Z,70.06
2023-07-14T06:10:53.115Z,69.53
2023-07-14T06:11:52.972Z,69.09
2023-07-14T06:12:52.960Z,67.19
2023-07-14T06:13:52.986Z,67.39
2023-07-14T06:14:52.944Z,67.89
2023-07-14T06:15:52.924Z,69.12
2023-07-14T06:16:52.955Z,69.59
2023-07-14T06:17:52.962Z,69.09
2023-07-14T06:18:52.914Z,67.72
2023-07-14T06:19:52.898Z,68.79
2023-07-14T06:20:52.892Z,65.76
2023-07-14T06:21:52.855Z,66.03
2023-07-14T06:22:52.973Z,65.60
2023-07-14T06:23:52.847Z,65.37
2023-07-14T06:24:52.827Z,64.07
2023-07-14T06:25:52.831Z,64.17
2023-07-14T06:26:52.912Z,62.84
2023-07-14T06:27:52.800Z,62.94
2023-07-14T06:28:52.780Z,62.71
2023-07-14T06:29:52.768Z,62.51
2023-07-14T06:30:52.801Z,62.71
2023-07-14T06:31:52.764Z,62.12
2023-07-14T06:32:52.820Z,61.71
2023-07-14T06:33:52.720Z,62.48
2023-07-14T06:34:52.712Z,62.29
2023-07-14T06:35:52.707Z,61.76
2023-07-14T06:36:52.721Z,60.96
2023-07-14T06:37:52.691Z,59.77
2023-07-14T06:38:52.674Z,61.06
2023-07-14T06:39:52.668Z,60.56
2023-07-14T06:40:52.657Z,60.56
2023-07-14T06:41:52.671Z,61.06
2023-07-14T06:42:52.673Z,60.46
2023-07-14T06:43:52.633Z,60.83
2023-07-14T06:44:52.615Z,60.53
2023-07-14T06:45:52.592Z,60.83
2023-07-14T06:46:52.626Z,60.43
2023-07-14T06:47:52.649Z,60.06
2023-07-14T06:48:52.587Z,61.06
2023-07-14T06:49:52.618Z,60.76
2023-07-14T06:50:52.541Z,61.25
2023-07-14T06:51:52.524Z,61.76
2023-07-14T06:52:52.540Z,61.83
2023-07-14T06:53:52.499Z,60.03
2023-07-14T06:54:52.508Z,60.11
2023-07-14T06:55:52.482Z,59.28
2023-07-14T06:56:52.468Z,58.45
2023-07-14T06:57:52.497Z,59.05
2023-07-14T06:58:52.496Z,59.15
2023-07-14T06:59:52.438Z,59.25
2023-07-14T07:00:52.423Z,58.65
2023-07-14T07:01:52.457Z,57.86
2023-07-14T07:02:54.386Z,59.12
2023-07-14T07:03:55.408Z,57.43
2023-07-14T07:04:52.380Z,57.39
2023-07-14T07:05:52.521Z,60.03
2023-07-14T07:06:52.373Z,59.47
2023-07-14T07:07:52.362Z,59.17
2023-07-14T07:08:52.347Z,59.23
2023-07-14T07:09:52.341Z,59.94
2023-07-14T07:10:52.307Z,59.51
2023-07-14T07:11:52.294Z,59.11
2023-07-14T07:12:52.305Z,58.75
2023-07-14T07:13:52.275Z,56.99
2023-07-14T07:14:52.347Z,57.46
2023-07-14T07:15:53.867Z,56.96
2023-07-14T07:16:52.262Z,56.30
2023-07-14T07:17:52.276Z,57.02
2023-07-14T07:18:52.218Z,57.59
2023-07-14T07:19:52.242Z,56.96
2023-07-14T07:20:54.428Z,57.53
2023-07-14T07:21:52.188Z,55.66
2023-07-14T07:22:52.274Z,54.87
2023-07-14T07:23:52.244Z,55.02
2023-07-14T07:24:52.188Z,54.60
2023-07-14T07:25:52.151Z,54.07
2023-07-14T07:26:52.153Z,52.04
2023-07-14T07:27:52.217Z,53.70
2023-07-14T07:28:52.122Z,54.82
2023-07-14T07:29:52.135Z,55.02
2023-07-14T07:30:52.161Z,54.57
2023-07-14T07:31:53.480Z,53.26
2023-07-14T07:32:52.099Z,52.37
2023-07-14T07:33:52.054Z,52.54
2023-07-14T07:34:52.094Z,51.87
2023-07-14T07:35:52.047Z,53.19
2023-07-14T07:36:52.048Z,53.14
2023-07-14T07:37:52.958Z,54.16
2023-07-14T07:38:52.003Z,55.18
2023-07-14T07:39:51.996Z,56.04
2023-07-14T07:40:51.977Z,55.15
2023-07-14T07:41:51.970Z,55.12
2023-07-14T07:42:52.050Z,53.44
2023-07-14T07:43:51.959Z,54.16
2023-07-14T07:44:51.958Z,55.94
2023-07-14T07:45:51.978Z,55.35
2023-07-14T07:46:51.973Z,54.82
2023-07-14T07:47:51.908Z,55.19
2023-07-14T07:48:51.917Z,54.90
2023-07-14T07:49:51.913Z,54.00
2023-07-14T07:50:51.954Z,54.40
2023-07-14T07:51:51.875Z,55.22
2023-07-14T07:52:51.850Z,55.18
2023-07-14T07:53:51.838Z,56.84
2023-07-14T07:54:51.850Z,55.22
2023-07-14T07:55:51.824Z,54.15
2023-07-14T07:56:51.807Z,52.54
2023-07-14T07:57:51.794Z,52.29
2023-07-14T07:58:51.796Z,51.18
2023-07-14T07:59:51.801Z,51.25
2023-07-14T08:00:51.760Z,50.73
2023-07-14T08:01:51.818Z,49.32
2023-07-14T08:02:51.809Z,49.96
2023-07-14T08:03:51.910Z,51.28
2023-07-14T08:04:51.748Z,50.68
2023-07-14T08:05:51.754Z,51.47
2023-07-14T08:06:51.717Z,51.23
2023-07-14T08:07:51.714Z,52.66
2023-07-14T08:08:51.687Z,52.07
2023-07-14T08:09:51.693Z,53.45
2023-07-14T08:10:51.689Z,53.28
2023-07-14T08:11:51.679Z,53.28
2023-07-14T08:12:51.636Z,52.72
2023-07-14T08:13:51.626Z,54.23
2023-07-14T08:14:51.635Z,54.43
2023-07-14T08:15:52.741Z,54.33
2023-07-14T08:16:51.716Z,54.33
2023-07-14T08:17:51.592Z,54.30
2023-07-14T08:18:51.591Z,53.91
2023-07-14T08:19:51.575Z,54.21
2023-07-14T08:20:51.549Z,54.10
2023-07-14T08:21:51.574Z,53.80
2023-07-14T08:22:51.576Z,53.91
2023-07-14T08:23:51.514Z,54.53
2023-07-14T08:24:51.512Z,55.12
2023-07-14T08:25:51.492Z,54.43
2023-07-14T08:26:51.501Z,54.72
2023-07-14T08:27:51.495Z,55.02
2023-07-14T08:28:51.461Z,54.82
2023-07-14T08:29:51.454Z,54.80
2023-07-14T08:30:51.440Z,53.78
2023-07-14T08:31:51.518Z,53.56
2023-07-14T08:32:51.457Z,53.66
2023-07-14T08:33:51.418Z,53.85
2023-07-14T08:34:51.489Z,53.08
2023-07-14T08:35:51.384Z,53.80
2023-07-14T08:36:51.388Z,54.60
2023-07-14T08:37:51.359Z,54.33
2023-07-14T08:38:51.367Z,54.72
2023-07-14T08:39:51.344Z,54.33
2023-07-14T08:40:51.339Z,54.97
2023-07-14T08:41:51.354Z,54.15
2023-07-14T08:42:51.312Z,52.91
2023-07-14T08:43:51.310Z,52.78
2023-07-14T08:44:51.292Z,52.96
2023-07-14T08:45:51.304Z,51.65
2023-07-14T08:46:51.283Z,51.82
2023-07-14T08:47:51.356Z,51.18
2023-07-14T08:48:51.242Z,51.89
2023-07-14T08:49:51.258Z,52.07
2023-07-14T08:50:51.269Z,51.32
2023-07-14T08:51:51.279Z,50.53
2023-07-14T08:52:51.205Z,50.83
2023-07-14T08:53:51.242Z,50.61
2023-07-14T08:54:51.191Z,49.42
2023-07-14T08:55:51.188Z,49.44
2023-07-14T08:56:51.160Z,49.44
2023-07-14T08:57:51.146Z,50.36
2023-07-14T08:58:51.151Z,51.20
2023-07-14T08:59:51.130Z,52.64
2023-07-14T09:00:51.173Z,53.13
2023-07-14T09:01:51.164Z,52.94
2023-07-14T09:02:51.127Z,52.86
2023-07-14T09:03:51.822Z,53.38
2023-07-14T09:04:51.185Z,53.80
2023-07-14T09:05:51.080Z,54.53
2023-07-14T09:06:51.065Z,54.95
2023-07-14T09:07:51.041Z,56.49
2023-07-14T09:08:51.031Z,56.37
2023-07-14T09:09:51.042Z,55.40
2023-07-14T09:10:51.005Z,55.08
2023-07-14T09:11:51.032Z,55.10
2023-07-14T09:12:50.989Z,56.70
2023-07-14T09:13:50.980Z,57.36
2023-07-14T09:14:50.960Z,56.54
2023-07-14T09:15:50.994Z,54.95
2023-07-14T09:16:51.009Z,55.08
2023-07-14T09:17:51.089Z,55.35
2023-07-14T09:18:50.959Z,55.25
2023-07-14T09:19:50.909Z,54.55
2023-07-14T09:20:50.909Z,55.44
2023-07-14T09:21:50.949Z,55.42
2023-07-14T09:22:50.953Z,54.23
2023-07-14T09:23:50.876Z,55.12
2023-07-14T09:24:50.876Z,55.32
2023-07-14T09:25:50.841Z,55.10
2023-07-14T09:26:50.912Z,53.63
2023-07-14T09:27:50.839Z,53.93
2023-07-14T09:28:50.815Z,54.03
2023-07-14T09:29:50.815Z,55.15
2023-07-14T09:30:50.895Z,54.53
2023-07-14T09:31:50.916Z,53.83
2023-07-14T09:32:50.877Z,53.53
2023-07-14T09:33:50.756Z,53.93
2023-07-14T09:34:50.748Z,54.33
2023-07-14T09:35:50.748Z,53.33
2023-07-14T09:36:50.734Z,53.44
2023-07-14T09:37:50.708Z,53.80
2023-07-14T09:38:50.819Z,53.91
2023-07-14T09:39:50.691Z,53.70
2023-07-14T09:40:50.685Z,53.41
2023-07-14T09:41:50.729Z,53.41
2023-07-14T09:42:50.662Z,53.80
2023-07-14T09:43:50.655Z,53.80
2023-07-14T09:44:50.651Z,54.40
2023-07-14T09:45:50.642Z,54.21
2023-07-14T09:46:50.706Z,53.41
2023-07-14T09:47:50.646Z,53.91
2023-07-14T09:48:50.603Z,54.00
2023-07-14T09:49:50.606Z,53.48
2023-07-14T09:50:50.569Z,53.68
2023-07-14T09:51:50.604Z,52.81
2023-07-14T09:52:50.565Z,53.41
2023-07-14T09:53:51.938Z,54.38
2023-07-14T09:54:50.550Z,53.78
2023-07-14T09:55:50.515Z,53.68
2023-07-14T09:56:50.513Z,52.59
2023-07-14T09:58:00.958Z,52.56
2023-07-14T09:58:51.477Z,52.39
2023-07-14T09:59:50.466Z,52.19
2023-07-14T10:00:50.583Z,52.69
2023-07-14T10:01:50.467Z,51.72
2023-07-14T10:02:50.479Z,52.31
2023-07-14T10:03:50.451Z,52.61
2023-07-14T10:04:50.429Z,52.72
2023-07-14T10:05:50.402Z,52.51
2023-07-14T10:06:50.391Z,52.61
2023-07-14T10:07:50.396Z,51.79
2023-07-14T10:08:50.391Z,51.79
2023-07-14T10:09:50.361Z,52.00
2023-07-14T10:10:50.367Z,51.07
2023-07-14T10:11:51.103Z,52.17
2023-07-14T10:12:50.346Z,52.09
2023-07-14T10:13:50.315Z,51.00
2023-07-14T10:14:50.301Z,50.70
2023-07-14T10:15:50.290Z,51.00
2023-07-14T10:16:50.308Z,50.88
2023-07-14T10:17:50.333Z,49.46
2023-07-14T10:18:50.281Z,49.66
2023-07-14T10:19:50.246Z,49.76
2023-07-14T10:20:50.255Z,48.60
2023-07-14T10:21:50.242Z,48.10
2023-07-14T10:22:50.263Z,48.00
2023-07-14T10:23:50.216Z,48.69
2023-07-14T10:24:50.201Z,48.97
2023-07-14T10:25:50.183Z,47.96
2023-07-14T10:26:50.216Z,46.86
2023-07-14T10:27:50.165Z,47.58
2023-07-14T10:28:50.148Z,47.88
2023-07-14T10:29:50.158Z,49.32
2023-07-14T10:30:50.156Z,46.84
2023-07-14T10:31:50.189Z,45.65
2023-07-14T10:32:50.118Z,46.05
2023-07-14T10:33:50.129Z,46.15
2023-07-14T10:34:50.097Z,46.97
2023-07-14T10:35:50.077Z,47.66
2023-07-14T10:36:50.079Z,45.78
2023-07-14T10:37:50.052Z,48.05
2023-07-14T10:38:50.053Z,48.65
2023-07-14T10:39:50.036Z,49.42
2023-07-14T10:40:50.028Z,49.42
2023-07-14T10:41:50.109Z,49.49
2023-07-14T10:42:50.052Z,49.00
2023-07-14T10:43:50.007Z,49.79
2023-07-14T10:44:49.991Z,49.37
2023-07-14T10:45:49.978Z,47.89
2023-07-14T10:46:49.997Z,46.08
2023-07-14T10:47:50.012Z,45.89
2023-07-14T10:48:49.930Z,46.08
2023-07-14T10:49:49.930Z,44.40
2023-07-14T10:50:49.909Z,44.72
2023-07-14T10:51:49.976Z,45.63
2023-07-14T10:52:49.899Z,44.84
2023-07-14T10:53:49.898Z,45.63
2023-07-14T10:54:49.894Z,45.34
2023-07-14T10:55:49.882Z,45.23
2023-07-14T10:56:49.882Z,44.15
2023-07-14T10:57:49.836Z,44.45
2023-07-14T10:58:49.856Z,44.64
2023-07-14T10:59:49.821Z,45.65
2023-07-14T11:00:49.798Z,45.06
2023-07-14T11:01:49.842Z,45.53
2023-07-14T11:02:49.876Z,44.94
2023-07-14T11:03:49.833Z,44.15
2023-07-14T11:04:49.875Z,43.95
2023-07-14T11:05:49.754Z,44.24
2023-07-14T11:06:49.739Z,44.96
2023-07-14T11:07:49.736Z,43.85
2023-07-14T11:08:49.714Z,44.84
2023-07-14T11:09:49.725Z,44.32
2023-07-14T11:10:49.699Z,43.93
2023-07-14T11:11:49.706Z,44.32
2023-07-14T11:12:51.835Z,44.92
2023-07-14T11:13:49.697Z,45.09
2023-07-14T11:14:49.725Z,44.38
2023-07-14T11:15:49.649Z,43.49
2023-07-14T11:16:49.682Z,43.87
2023-07-14T11:17:49.701Z,43.17
2023-07-14T11:18:49.643Z,42.66
2023-07-14T11:19:49.623Z,42.26
2023-07-14T11:20:49.608Z,42.44
2023-07-14T11:21:49.609Z,42.02
2023-07-14T11:22:49.614Z,41.36
2023-07-14T11:23:49.597Z,42.74
2023-07-14T11:24:49.540Z,42.64
2023-07-14T11:25:49.544Z,41.14
2023-07-14T11:26:49.743Z,42.20
2023-07-14T11:27:49.505Z,42.20
2023-07-14T11:28:51.206Z,40.31
2023-07-14T11:29:49.484Z,41.33
2023-07-14T11:30:49.503Z,43.51
2023-07-14T11:31:49.547Z,42.66
2023-07-14T11:32:49.478Z,43.65
2023-07-14T11:33:49.458Z,43.77
2023-07-14T11:34:49.454Z,44.75
2023-07-14T11:35:49.419Z,44.93
2023-07-14T11:36:49.427Z,44.14
2023-07-14T11:37:49.413Z,44.06
2023-07-14T11:38:49.398Z,46.04
2023-07-14T11:39:49.531Z,46.06
2023-07-14T11:40:49.371Z,45.35
2023-07-14T11:41:49.369Z,44.14
2023-07-14T11:42:49.355Z,43.82
2023-07-14T11:43:49.334Z,43.31
2023-07-14T11:44:49.325Z,43.41
2023-07-14T11:45:49.382Z,43.09
2023-07-14T11:46:49.358Z,43.19
2023-07-14T11:47:49.341Z,42.79
2023-07-14T11:48:49.276Z,42.79
2023-07-14T11:49:49.277Z,42.52
2023-07-14T11:50:49.272Z,42.91
2023-07-14T11:51:49.253Z,43.19
2023-07-14T11:52:49.257Z,41.91
2023-07-14T11:53:49.233Z,42.82
2023-07-14T11:54:49.220Z,43.25
2023-07-14T11:55:49.216Z,43.45
2023-07-14T11:56:52.257Z,43.45
2023-07-14T11:57:49.205Z,43.96
2023-07-14T11:58:49.176Z,43.47
2023-07-14T11:59:49.166Z,43.77
2023-07-14T12:00:49.147Z,43.10
2023-07-14T12:01:49.207Z,43.29
2023-07-14T12:02:52.721Z,44.01
2023-07-14T12:03:49.218Z,43.80
2023-07-14T12:04:49.146Z,44.87
2023-07-14T12:05:49.109Z,43.79
2023-07-14T12:06:49.112Z,43.87
2023-07-14T12:07:49.074Z,43.66
2023-07-14T12:08:49.063Z,43.57
2023-07-14T12:09:49.065Z,42.96
2023-07-14T12:10:49.077Z,43.62
2023-07-14T12:11:49.048Z,43.70
2023-07-14T12:12:49.055Z,42.40
2023-07-14T12:13:49.009Z,42.47
2023-07-14T12:14:48.998Z,42.55
2023-07-14T12:15:49.024Z,41.47
2023-07-14T12:16:49.120Z,41.17
2023-07-14T12:17:49.142Z,42.18
2023-07-14T12:18:48.973Z,41.17
2023-07-14T12:19:48.944Z,41.30
2023-07-14T12:20:48.938Z,41.02
2023-07-14T12:21:48.942Z,42.50
2023-07-14T12:22:49.018Z,42.79
2023-07-14T12:23:48.903Z,43.19
2023-07-14T12:24:48.909Z,42.85
2023-07-14T12:25:48.882Z,42.46
2023-07-14T12:26:48.902Z,41.85
2023-07-14T12:27:48.870Z,41.65
2023-07-14T12:28:52.165Z,40.96
2023-07-14T12:29:58.126Z,40.88
2023-07-14T12:30:49.871Z,40.88
2023-07-14T12:31:48.866Z,41.00
2023-07-14T12:32:48.882Z,41.91
2023-07-14T12:33:48.899Z,42.91
2023-07-14T12:34:48.824Z,43.33
2023-07-14T12:35:48.770Z,43.33
2023-07-14T12:36:48.788Z,43.13
2023-07-14T12:37:48.769Z,44.02
2023-07-14T12:38:48.796Z,43.13
2023-07-14T12:39:48.737Z,43.52
2023-07-14T12:40:48.722Z,42.83
2023-07-14T12:41:48.748Z,43.13
2023-07-14T12:42:48.743Z,42.14
2023-07-14T12:43:48.704Z,42.42
2023-07-14T12:44:48.685Z,43.01
2023-07-14T12:45:48.741Z,42.91
2023-07-14T12:46:48.657Z,42.40
2023-07-14T12:47:48.716Z,41.91
2023-07-14T12:48:48.639Z,42.97
2023-07-14T12:49:48.617Z,41.69
2023-07-14T12:50:48.639Z,41.38
2023-07-14T12:51:48.631Z,41.38
2023-07-14T12:52:48.645Z,41.17
2023-07-14T12:53:48.593Z,40.48